Time;durP1;ratioP1;P1;durP2;ratioP2;P2;SDS_P1;SDS_P2;PMS_P1;PMS_P2;Temp;Humidity;BMP_temperature;BMP_pressure;BME280_temperature;BME280_humidity;BME280_pressure;Samples;Min_cycle;Max_cycle;Signal;HPM_P1;HPM_P2
2022/07/12 00:01:10;;;;;;;3.35;1.15;;;14.60;99.90;;;;;;5063291;28;20033;-93
2022/07/12 00:03:36;;;;;;;1.35;1.15;;;14.50;99.90;;;;;;5063130;28;20058;-92
2022/07/12 00:06:02;;;;;;;1.08;0.98;;;14.50;99.90;;;;;;5063514;28;20498;-93
2022/07/12 00:08:27;;;;;;;1.15;1.05;;;14.40;99.90;;;;;;5064159;28;20119;-93
2022/07/12 00:10:53;;;;;;;1.35;1.25;;;14.20;99.90;;;;;;5063745;28;20106;-92
2022/07/12 00:13:19;;;;;;;1.20;1.10;;;14.10;99.90;;;;;;5067423;28;20024;-94
2022/07/12 00:15:45;;;;;;;1.27;1.15;;;14.00;99.90;;;;;;5064068;28;20038;-92
2022/07/12 00:18:11;;;;;;;2.15;1.50;;;13.90;99.90;;;;;;5063674;28;20090;-93
2022/07/12 00:20:37;;;;;;;1.55;1.45;;;13.90;99.90;;;;;;5063950;28;20392;-92
2022/07/12 00:23:03;;;;;;;1.65;1.45;;;13.90;99.90;;;;;;5067584;28;20036;-94
2022/07/12 00:25:29;;;;;;;1.88;1.33;;;13.90;99.90;;;;;;5068101;28;20037;-93
2022/07/12 00:27:55;;;;;;;1.65;1.55;;;14.00;99.90;;;;;;5068945;28;20031;-92
2022/07/12 00:30:22;;;;;;;1.70;1.60;;;14.10;99.90;;;;;;5067990;28;20035;-93
2022/07/12 00:32:48;;;;;;;2.47;1.73;;;14.20;99.90;;;;;;5065386;28;20100;-94
2022/07/12 00:35:14;;;;;;;1.83;1.40;;;14.30;99.90;;;;;;5065154;28;20036;-94
2022/07/12 00:37:41;;;;;;;1.77;1.67;;;14.30;99.90;;;;;;5072934;28;20043;-93
2022/07/12 00:40:09;;;;;;;2.03;1.83;;;14.30;99.90;;;;;;5073934;28;20044;-92
2022/07/12 00:42:41;;;;;;;1.88;1.67;;;14.20;99.90;;;;;;5066627;28;20078;-92
2022/07/12 00:45:08;;;;;;;3.25;2.20;;;14.20;99.90;;;;;;5068676;28;20028;-94
2022/07/12 00:47:37;;;;;;;2.72;1.48;;;14.10;99.90;;;;;;5074215;28;20050;-94
2022/07/12 00:50:14;;;;;;;2.58;1.95;;;14.00;99.90;;;;;;5068560;28;20060;-92
2022/07/12 00:52:42;;;;;;;2.03;1.45;;;13.90;99.90;;;;;;5064265;28;20482;-92
2022/07/12 00:55:09;;;;;;;1.70;1.60;;;13.80;99.90;;;;;;5063435;28;20032;-93
2022/07/12 00:57:44;;;;;;;1.77;1.65;;;13.70;99.90;;;;;;5062280;28;20027;-92
2022/07/12 01:00:17;;;;;;;3.42;1.73;;;13.70;99.90;;;;;;5079169;28;20036;-94
2022/07/12 01:02:46;;;;;;;1.85;1.73;;;13.60;99.90;;;;;;5062081;28;20063;-92
2022/07/12 01:05:12;;;;;;;2.30;1.73;;;13.60;99.90;;;;;;5063249;28;20039;-91
2022/07/12 01:07:38;;;;;;;1.98;1.77;;;13.50;99.90;;;;;;5061628;28;20067;-92
2022/07/12 01:10:05;;;;;;;1.90;1.80;;;13.50;99.90;;;;;;5062567;28;20068;-93
2022/07/12 01:12:31;;;;;;;2.20;1.80;;;13.30;99.90;;;;;;5079310;28;20087;-94
2022/07/12 01:14:58;;;;;;;4.18;1.95;;;13.20;99.90;;;;;;5065111;28;20526;-92
2022/07/12 01:17:26;;;;;;;2.08;1.88;;;13.20;99.90;;;;;;5062023;28;20123;-92
2022/07/12 01:19:55;;;;;;;1.70;1.60;;;13.10;99.90;;;;;;5062222;28;20028;-92
2022/07/12 01:22:32;;;;;;;2.17;1.90;;;12.90;99.90;;;;;;5078298;28;20077;-92
2022/07/12 01:25:00;;;;;;;3.90;1.70;;;12.90;99.90;;;;;;5061627;28;20039;-92
2022/07/12 01:27:27;;;;;;;2.25;2.05;;;12.80;99.90;;;;;;5061646;28;20033;-91
2022/07/12 01:29:52;;;;;;;2.50;2.05;;;12.70;99.90;;;;;;5061520;28;20040;-92
2022/07/12 01:32:24;;;;;;;2.65;1.85;;;12.70;99.90;;;;;;5063445;28;20035;-92
2022/07/12 01:34:57;;;;;;;3.80;2.10;;;12.60;99.90;;;;;;5060952;28;20468;-91
2022/07/12 01:37:24;;;;;;;2.20;2.00;;;12.40;99.90;;;;;;5060481;28;20499;-93
2022/07/12 01:39:52;;;;;;;4.45;2.10;;;12.40;99.90;;;;;;5060736;28;20096;-92
2022/07/12 01:42:22;;;;;;;2.15;1.70;;;12.30;99.90;;;;;;5060858;28;20048;-92
2022/07/12 01:44:52;;;;;;;2.35;1.95;;;12.30;99.90;;;;;;5060773;28;20470;-91
2022/07/12 01:47:19;;;;;;;2.13;1.90;;;12.30;99.90;;;;;;5061031;28;20040;-92
2022/07/12 01:49:45;;;;;;;2.10;1.90;;;12.20;99.90;;;;;;5060961;28;20375;-91
2022/07/12 01:52:12;;;;;;;4.53;2.22;;;12.20;99.90;;;;;;5061273;28;20036;-91
2022/07/12 01:54:38;;;;;;;2.47;2.28;;;12.10;99.90;;;;;;5060952;28;20391;-91
2022/07/12 01:57:04;;;;;;;3.88;2.80;;;12.10;99.90;;;;;;5061311;28;20128;-92
2022/07/12 01:59:30;;;;;;;4.43;2.35;;;12.00;99.90;;;;;;5061200;28;20479;-91
2022/07/12 02:01:57;;;;;;;4.03;2.40;;;12.00;99.90;;;;;;5061794;28;20037;-92
2022/07/12 02:04:23;;;;;;;2.75;2.08;;;11.90;99.90;;;;;;5060290;28;20032;-91
2022/07/12 02:06:49;;;;;;;2.60;2.15;;;11.90;99.90;;;;;;5060158;28;20029;-92
2022/07/12 02:09:15;;;;;;;2.40;2.20;;;11.80;99.90;;;;;;5060627;28;20161;-93
2022/07/12 02:11:43;;;;;;;3.47;2.40;;;11.80;99.90;;;;;;5077722;28;20021;-91
2022/07/12 02:14:10;;;;;;;2.47;2.28;;;11.70;99.90;;;;;;5060727;28;20120;-93
2022/07/12 02:16:35;;;;;;;2.15;1.95;;;11.60;99.90;;;;;;5060478;28;20028;-93
2022/07/12 02:19:02;;;;;;;2.58;2.38;;;11.60;99.90;;;;;;5059917;28;20035;-92
2022/07/12 02:21:27;;;;;;;2.38;2.08;;;11.50;99.90;;;;;;5060442;28;20496;-92
2022/07/12 02:23:53;;;;;;;2.75;2.45;;;11.60;99.90;;;;;;5060092;28;20028;-92
2022/07/12 02:26:19;;;;;;;2.75;2.17;;;11.60;99.90;;;;;;5076477;28;20434;-93
2022/07/12 02:28:45;;;;;;;2.50;2.22;;;11.60;99.90;;;;;;5060237;28;20074;-91
2022/07/12 02:31:10;;;;;;;6.47;2.60;;;11.60;99.90;;;;;;5060777;28;20028;-92
2022/07/12 02:33:36;;;;;;;3.63;2.00;;;11.60;99.90;;;;;;5059660;28;20032;-92
2022/07/12 02:36:03;;;;;;;3.33;2.30;;;11.60;99.90;;;;;;5060169;28;20028;-92
2022/07/12 02:39:11;;;;;;;2.40;2.00;;;11.60;99.90;;;;;;5060280;28;20029;-93
2022/07/12 02:41:37;;;;;;;2.70;2.28;;;11.60;99.90;;;;;;5061706;28;20039;-92
2022/07/12 02:44:03;;;;;;;3.67;2.08;;;11.60;99.90;;;;;;5059941;28;20028;-93
2022/07/12 02:46:28;;;;;;;4.72;2.30;;;11.60;99.90;;;;;;5059942;28;20034;-91
2022/07/12 02:48:54;;;;;;;2.40;2.20;;;11.60;99.90;;;;;;5060082;28;20124;-91
2022/07/12 02:51:20;;;;;;;3.53;2.53;;;11.60;99.90;;;;;;5060051;28;20078;-93
2022/07/12 02:53:46;;;;;;;2.30;2.00;;;11.60;99.90;;;;;;5060067;28;20120;-91
2022/07/12 02:56:11;;;;;;;3.45;2.28;;;11.60;99.90;;;;;;5060081;28;20028;-93
2022/07/12 02:58:37;;;;;;;3.22;2.22;;;11.60;99.90;;;;;;5060149;28;20540;-92
2022/07/12 03:01:03;;;;;;;2.50;2.30;;;11.60;99.90;;;;;;5060244;28;20032;-92
2022/07/12 03:03:29;;;;;;;4.25;2.00;;;11.60;99.90;;;;;;5059717;28;20096;-93
2022/07/12 03:05:55;;;;;;;3.08;2.13;;;11.60;99.90;;;;;;5059428;28;20492;-91
2022/07/12 03:08:21;;;;;;;2.75;2.30;;;11.50;99.90;;;;;;5059991;28;20167;-92
2022/07/12 03:10:47;;;;;;;4.38;2.17;;;11.50;99.90;;;;;;5060116;28;20056;-93
2022/07/12 03:13:12;;;;;;;2.40;2.03;;;11.50;99.90;;;;;;5060167;28;20020;-92
2022/07/12 03:15:38;;;;;;;2.47;2.28;;;11.40;99.90;;;;;;5059091;28;20094;-93
2022/07/12 03:18:04;;;;;;;3.97;1.83;;;11.40;99.90;;;;;;5059208;28;20032;-92
2022/07/12 03:20:31;;;;;;;3.75;2.05;;;11.40;99.90;;;;;;5062365;28;20038;-93
2022/07/12 03:22:57;;;;;;;4.32;1.90;;;11.40;99.90;;;;;;5059551;28;20090;-92
2022/07/12 03:25:24;;;;;;;1.92;1.70;;;11.40;99.90;;;;;;5059549;28;20033;-92
2022/07/12 03:27:49;;;;;;;8.05;2.20;;;11.30;99.90;;;;;;5059903;28;20089;-93
2022/07/12 03:30:16;;;;;;;2.47;2.20;;;11.30;99.90;;;;;;5060483;28;20060;-90
2022/07/12 03:32:42;;;;;;;5.57;1.90;;;11.30;99.90;;;;;;5062684;28;20476;-89
2022/07/12 03:35:08;;;;;;;2.30;2.10;;;11.30;99.90;;;;;;5077157;28;20041;-89
2022/07/12 03:37:47;;;;;;;2.20;1.77;;;11.20;99.90;;;;;;5060728;28;20032;-90
2022/07/12 03:40:14;;;;;;;2.17;1.70;;;11.20;99.90;;;;;;5060420;28;20072;-89
2022/07/12 03:42:40;;;;;;;2.67;1.83;;;11.20;99.90;;;;;;5059874;28;20033;-90
2022/07/12 03:45:07;;;;;;;2.10;1.80;;;11.30;99.90;;;;;;5076258;28;20028;-89
2022/07/12 03:47:37;;;;;;;3.03;2.20;;;11.30;99.90;;;;;;5060212;28;20033;-89
2022/07/12 03:50:08;;;;;;;4.55;2.03;;;11.40;99.90;;;;;;5060141;28;20060;-89
2022/07/12 03:52:34;;;;;;;2.50;2.13;;;11.40;99.90;;;;;;5076921;28;20075;-90
2022/07/12 03:55:03;;;;;;;2.00;1.70;;;11.30;99.90;;;;;;5060448;28;20041;-89
2022/07/12 03:57:30;;;;;;;2.13;1.90;;;11.30;99.90;;;;;;5063073;28;20058;-90
2022/07/12 03:59:56;;;;;;;2.85;2.17;;;11.20;99.90;;;;;;5060704;28;20036;-90
2022/07/12 04:02:22;;;;;;;2.20;2.00;;;11.20;99.90;;;;;;5060746;28;20032;-90
2022/07/12 04:04:49;;;;;;;2.05;1.67;;;11.20;99.90;;;;;;5076708;28;20064;-90
2022/07/12 04:07:15;;;;;;;2.75;1.92;;;11.30;99.90;;;;;;5093852;28;20468;-90
2022/07/12 04:09:40;;;;;;;2.58;2.20;;;11.30;99.90;;;;;;5059717;28;20027;-90
2022/07/12 04:12:06;;;;;;;2.70;1.80;;;11.30;99.90;;;;;;5076243;28;20030;-90
2022/07/12 04:14:33;;;;;;;1.77;1.67;;;11.40;99.90;;;;;;5059367;28;20069;-90
2022/07/12 04:16:59;;;;;;;3.55;1.73;;;11.40;99.90;;;;;;5060351;28;20459;-90
2022/07/12 04:19:27;;;;;;;3.22;2.50;;;11.40;99.90;;;;;;5059689;28;20123;-90
2022/07/12 04:21:55;;;;;;;2.50;2.13;;;11.50;99.90;;;;;;5093023;28;20047;-91
2022/07/12 04:24:21;;;;;;;6.78;2.10;;;11.50;99.90;;;;;;5059941;28;20033;-90
2022/07/12 04:26:48;;;;;;;3.20;1.67;;;11.60;99.90;;;;;;5059923;28;20029;-90
2022/07/12 04:29:15;;;;;;;2.15;1.80;;;11.60;99.90;;;;;;5060314;28;20762;-90
2022/07/12 04:31:40;;;;;;;3.28;1.95;;;11.60;99.90;;;;;;5093654;28;20082;-90
2022/07/12 04:34:06;;;;;;;2.13;1.80;;;11.60;99.90;;;;;;5076640;28;20424;-91
2022/07/12 04:36:32;;;;;;;2.75;1.70;;;11.60;99.90;;;;;;5059866;28;20029;-89
2022/07/12 04:38:58;;;;;;;1.92;1.60;;;11.60;99.90;;;;;;5059808;28;20173;-89
2022/07/12 04:41:24;;;;;;;1.75;1.65;;;11.70;99.90;;;;;;5076262;28;20060;-90
2022/07/12 04:43:50;;;;;;;3.42;1.98;;;11.70;99.90;;;;;;5058510;28;20029;-91
2022/07/12 04:46:16;;;;;;;2.35;2.10;;;11.80;99.90;;;;;;5059449;28;20037;-90
2022/07/12 04:48:41;;;;;;;2.10;1.90;;;11.90;99.90;;;;;;5076293;28;20028;-90
2022/07/12 04:51:07;;;;;;;2.30;1.95;;;12.00;99.90;;;;;;5075978;28;20616;-90
2022/07/12 04:53:33;;;;;;;2.40;2.00;;;12.10;99.90;;;;;;5092059;28;20029;-91
2022/07/12 04:56:17;;;;;;;4.35;2.67;;;12.10;99.90;;;;;;5075396;28;20085;-91
2022/07/12 04:58:43;;;;;;;2.67;2.30;;;12.20;99.90;;;;;;5076524;28;20028;-89
2022/07/12 05:01:09;;;;;;;4.68;2.30;;;12.40;99.90;;;;;;5077742;28;20066;-92
2022/07/12 05:03:34;;;;;;;5.30;2.53;;;12.50;99.90;;;;;;5058896;28;20036;-90
2022/07/12 05:06:00;;;;;;;3.00;2.03;;;12.60;99.90;;;;;;5058887;28;20039;-90
2022/07/12 05:08:26;;;;;;;4.53;2.17;;;12.70;99.90;;;;;;5059008;28;20021;-90
2022/07/12 05:10:52;;;;;;;5.05;2.10;;;12.80;99.90;;;;;;5058585;28;20078;-90
2022/07/12 05:13:18;;;;;;;2.70;1.90;;;12.90;99.90;;;;;;5058849;28;20459;-91
2022/07/12 05:15:43;;;;;;;3.50;2.20;;;13.10;99.90;;;;;;5092262;28;20040;-90
2022/07/12 05:18:09;;;;;;;2.55;2.35;;;13.20;99.90;;;;;;5059074;28;20047;-90
2022/07/12 05:20:35;;;;;;;5.13;2.22;;;13.30;99.90;;;;;;5077097;28;20761;-90
2022/07/12 05:23:00;;;;;;;3.15;2.08;;;13.50;99.90;;;;;;5059352;28;20032;-92
2022/07/12 05:25:27;;;;;;;3.83;2.00;;;13.70;99.90;;;;;;5059469;28;20029;-91
2022/07/12 05:27:52;;;;;;;1.98;1.73;;;13.90;99.90;;;;;;5092745;28;20034;-90
2022/07/12 05:30:18;;;;;;;1.90;1.80;;;14.10;99.90;;;;;;5075598;28;20575;-89
2022/07/12 05:32:44;;;;;;;2.25;1.83;;;14.30;99.90;;;;;;5058890;28;20112;-90
2022/07/12 05:35:10;;;;;;;1.60;1.50;;;14.40;99.90;;;;;;5059072;28;20131;-90
2022/07/12 05:37:35;;;;;;;2.03;1.50;;;14.70;99.90;;;;;;5059586;28;20179;-92
2022/07/12 05:40:01;;;;;;;1.38;1.27;;;14.80;99.90;;;;;;5059340;28;20058;-90
2022/07/12 05:42:27;;;;;;;3.17;1.70;;;15.00;99.90;;;;;;5076542;28;20761;-90
2022/07/12 05:44:53;;;;;;;1.30;1.20;;;15.20;99.90;;;;;;5092484;28;20028;-91
2022/07/12 05:47:19;;;;;;;2.28;1.38;;;15.30;99.90;;;;;;5092562;28;20025;-90
2022/07/12 05:49:45;;;;;;;1.38;1.23;;;15.40;99.90;;;;;;5058308;28;20032;-90
2022/07/12 05:54:55;;;;;;;1.50;1.40;;;15.60;99.90;;;;;;5075830;28;20036;-93
2022/07/12 05:57:21;;;;;;;1.50;1.40;;;15.70;99.90;;;;;;5059209;28;20399;-91
2022/07/12 05:59:47;;;;;;;1.42;1.33;;;15.80;99.90;;;;;;5058309;28;20031;-92
2022/07/12 06:02:12;;;;;;;1.40;1.27;;;15.90;99.90;;;;;;5075418;28;20534;-91
2022/07/12 06:04:38;;;;;;;2.47;1.10;;;16.00;99.90;;;;;;5059043;28;20025;-90
2022/07/12 06:07:04;;;;;;;4.60;1.60;;;16.10;99.90;;;;;;5058281;28;20124;-91
2022/07/12 06:09:30;;;;;;;1.30;1.10;;;16.20;99.90;;;;;;5091920;28;20047;-91
2022/07/12 06:11:55;;;;;;;1.30;1.20;;;16.20;99.90;;;;;;5058738;28;20592;-89
2022/07/12 06:14:21;;;;;;;3.00;1.27;;;16.30;99.90;;;;;;5091188;28;20036;-91
2022/07/12 06:16:47;;;;;;;2.70;1.42;;;16.40;99.90;;;;;;5057880;28;20162;-92
2022/07/12 06:19:13;;;;;;;1.20;1.10;;;16.50;99.90;;;;;;5057904;28;20032;-91
2022/07/12 06:21:38;;;;;;;2.15;1.27;;;16.60;99.90;;;;;;5058146;28;20036;-92
2022/07/12 06:24:04;;;;;;;1.50;1.40;;;16.60;99.90;;;;;;5076373;28;20029;-91
2022/07/12 06:26:30;;;;;;;2.08;1.42;;;16.80;99.90;;;;;;5057654;28;20029;-91
2022/07/12 06:28:56;;;;;;;1.27;1.17;;;16.80;99.90;;;;;;5091364;28;20070;-91
2022/07/12 06:31:23;;;;;;;2.00;1.42;;;16.80;99.90;;;;;;5058682;28;20067;-93
2022/07/12 06:33:49;;;;;;;1.88;1.40;;;16.70;99.90;;;;;;5058778;28;20029;-92
2022/07/12 06:36:15;;;;;;;2.65;1.40;;;16.70;99.90;;;;;;5058625;28;20028;-91
2022/07/12 06:38:41;;;;;;;1.33;1.10;;;16.80;99.90;;;;;;5074312;28;20533;-92
2022/07/12 06:41:06;;;;;;;2.40;1.30;;;16.80;99.90;;;;;;5057935;28;20033;-92
2022/07/12 06:43:32;;;;;;;1.63;1.52;;;16.80;99.90;;;;;;5057785;28;20029;-91
2022/07/12 06:45:57;;;;;;;2.78;1.38;;;16.90;99.90;;;;;;5057891;28;20033;-91
2022/07/12 06:48:23;;;;;;;1.60;1.13;;;17.00;99.90;;;;;;5057438;28;20052;-92
2022/07/12 06:50:49;;;;;;;1.30;1.10;;;17.00;99.90;;;;;;5058827;28;20040;-92
2022/07/12 06:53:15;;;;;;;1.33;1.23;;;17.20;99.90;;;;;;5057733;28;20031;-90
2022/07/12 06:55:43;;;;;;;2.17;1.60;;;17.40;99.90;;;;;;5057576;28;20033;-92
2022/07/12 06:58:08;;;;;;;2.22;1.40;;;17.40;99.90;;;;;;5074029;28;20487;-91
2022/07/12 07:00:34;;;;;;;2.60;1.30;;;17.40;99.90;;;;;;5058669;28;20128;-91
2022/07/12 07:03:00;;;;;;;2.03;1.20;;;17.30;99.90;;;;;;5074167;28;20476;-92
2022/07/12 07:05:26;;;;;;;1.98;1.35;;;17.40;99.90;;;;;;5058454;28;20044;-92
2022/07/12 07:07:51;;;;;;;1.77;1.67;;;17.40;99.90;;;;;;5079465;28;20052;-91
2022/07/12 07:10:17;;;;;;;1.83;1.33;;;17.40;99.90;;;;;;5061572;28;20032;-91
2022/07/12 07:12:43;;;;;;;1.98;1.77;;;17.50;99.90;;;;;;5061958;28;20096;-91
2022/07/12 07:15:18;;;;;;;2.25;1.48;;;17.60;99.90;;;;;;5062302;28;20899;-92
2022/07/12 07:17:44;;;;;;;1.85;1.40;;;17.80;99.90;;;;;;5061161;28;20169;-91
2022/07/12 07:20:11;;;;;;;1.67;1.55;;;18.10;99.90;;;;;;5077792;28;20060;-92
2022/07/12 07:22:37;;;;;;;1.42;1.33;;;18.30;99.90;;;;;;5060996;28;20380;-91
2022/07/12 07:25:03;;;;;;;3.28;1.50;;;18.50;99.90;;;;;;5060861;28;20464;-92
2022/07/12 07:27:29;;;;;;;5.45;1.40;;;18.60;99.90;;;;;;5060939;28;20036;-91
2022/07/12 07:32:39;;;;;;;2.88;1.33;;;18.90;99.90;;;;;;5077762;28;20048;-91
2022/07/12 07:35:08;;;;;;;0.90;0.90;;;18.90;99.90;;;;;;5060774;28;20033;-92
2022/07/12 07:37:34;;;;;;;1.02;1.00;;;19.20;99.90;;;;;;5094257;28;20028;-92
2022/07/12 07:40:00;;;;;;;1.77;0.93;;;19.10;99.90;;;;;;5061456;28;20106;-92
2022/07/12 07:42:26;;;;;;;1.80;1.20;;;19.00;99.90;;;;;;5077537;28;20535;-91
2022/07/12 07:44:51;;;;;;;4.40;1.92;;;18.80;99.90;;;;;;5061348;28;20036;-92
2022/07/12 07:47:17;;;;;;;1.70;1.23;;;18.80;99.90;;;;;;5078370;28;20044;-93
2022/07/12 07:49:43;;;;;;;1.88;0.93;;;18.70;99.90;;;;;;5060706;28;20016;-91
2022/07/12 07:52:08;;;;;;;2.17;1.10;;;18.70;99.90;;;;;;5077196;28;20024;-91
2022/07/12 07:54:34;;;;;;;1.77;0.90;;;18.50;99.90;;;;;;5078637;28;20028;-91
2022/07/12 07:57:00;;;;;;;0.73;0.73;;;18.60;99.90;;;;;;5094080;28;20028;-91
2022/07/12 07:59:26;;;;;;;1.40;0.90;;;18.60;99.90;;;;;;5060336;28;20025;-90
2022/07/12 08:01:54;;;;;;;2.45;0.60;;;18.90;99.90;;;;;;5060086;28;20029;-92
2022/07/12 08:04:21;;;;;;;1.30;0.77;;;20.10;99.90;;;;;;5059876;28;20032;-92
2022/07/12 08:07:18;;;;;;;0.40;0.40;;;22.30;99.90;;;;;;5060506;28;20032;-93
2022/07/12 08:09:43;;;;;;;0.73;0.60;;;22.90;99.90;;;;;;5060196;28;20040;-91
2022/07/12 08:12:18;;;;;;;0.60;0.60;;;22.30;99.90;;;;;;5076836;28;20032;-91
2022/07/12 08:14:44;;;;;;;0.60;0.50;;;23.10;99.90;;;;;;5093151;28;20029;-91
2022/07/12 08:17:09;;;;;;;0.95;0.73;;;23.10;99.90;;;;;;5092672;28;20388;-92
2022/07/12 08:19:35;;;;;;;1.95;0.40;;;23.30;99.90;;;;;;5060239;28;20036;-91
2022/07/12 08:22:01;;;;;;;0.68;0.52;;;22.70;99.90;;;;;;5060168;28;20025;-91
2022/07/12 08:24:27;;;;;;;0.60;0.52;;;22.50;99.90;;;;;;5076910;28;20052;-93
2022/07/12 08:26:52;;;;;;;2.53;0.50;;;23.50;99.90;;;;;;5059373;28;20040;-90
2022/07/12 08:29:18;;;;;;;0.93;0.85;;;25.00;99.90;;;;;;5059438;28;20037;-91
2022/07/12 08:31:45;;;;;;;1.00;0.57;;;25.70;99.90;;;;;;5059923;28;20081;-91
2022/07/12 08:34:11;;;;;;;0.40;0.40;;;26.50;99.90;;;;;;5076028;28;20033;-92
2022/07/12 08:36:36;;;;;;;0.43;0.43;;;27.10;99.90;;;;;;5060347;28;20111;-94
2022/07/12 08:39:03;;;;;;;0.60;0.60;;;26.10;99.90;;;;;;5060046;28;20476;-91
2022/07/12 08:41:29;;;;;;;1.05;0.60;;;24.40;99.90;;;;;;5076092;28;20124;-90
2022/07/12 08:43:55;;;;;;;1.02;0.88;;;22.80;99.90;;;;;;5059295;28;20391;-90
2022/07/12 08:46:21;;;;;;;0.77;0.77;;;21.50;99.90;;;;;;5059155;28;20032;-91
2022/07/12 08:48:46;;;;;;;1.30;0.70;;;21.10;99.90;;;;;;5059038;28;20119;-92
2022/07/12 08:51:18;;;;;;;0.63;0.60;;;20.80;99.90;;;;;;5059786;28;20112;-90
2022/07/12 08:53:44;;;;;;;0.90;0.70;;;20.90;99.90;;;;;;5076197;28;20518;-91
2022/07/12 08:56:33;;;;;;;0.47;0.47;;;21.30;99.90;;;;;;5059019;28;20036;-91
2022/07/12 08:59:14;;;;;;;3.00;0.60;;;21.60;99.90;;;;;;5058977;28;20067;-91
2022/07/12 09:01:50;;;;;;;0.90;0.70;;;23.10;99.90;;;;;;5058420;28;20055;-93
2022/07/12 09:04:16;;;;;;;1.73;0.70;;;24.40;99.90;;;;;;5092299;28;20028;-91
2022/07/12 09:06:42;;;;;;;3.90;0.60;;;24.60;99.90;;;;;;5058814;28;20048;-91
2022/07/12 09:09:09;;;;;;;1.73;0.70;;;25.50;99.90;;;;;;5059115;28;20039;-92
2022/07/12 09:11:36;;;;;;;0.50;0.50;;;26.80;99.90;;;;;;5058265;28;20083;-92
2022/07/12 09:14:02;;;;;;;0.70;0.57;;;27.30;99.10;;;;;;5091292;28;20043;-91
2022/07/12 09:16:29;;;;;;;0.45;0.45;;;27.00;97.30;;;;;;5059073;28;20781;-92
2022/07/12 09:19:16;;;;;;;2.13;0.70;;;25.90;98.00;;;;;;5058754;28;20067;-94
2022/07/12 09:21:50;;;;;;;1.65;0.40;;;24.40;99.80;;;;;;5058244;28;20039;-91
2022/07/12 09:24:16;;;;;;;0.75;0.73;;;24.60;99.90;;;;;;5058148;28;20036;-91
2022/07/12 09:26:43;;;;;;;1.60;0.60;;;25.70;99.20;;;;;;5059304;28;20081;-91
2022/07/12 09:29:11;;;;;;;0.57;0.40;;;25.30;98.30;;;;;;5075365;28;20166;-92
2022/07/12 09:37:17;;;;;;;0.50;0.50;;;24.00;99.40;;;;;;5075138;28;20119;-91
2022/07/12 09:39:43;;;;;;;1.08;0.75;;;25.80;97.60;;;;;;5092102;28;20016;-91
2022/07/12 09:42:11;;;;;;;1.05;0.40;;;27.50;95.80;;;;;;5074478;28;20482;-91
2022/07/12 09:44:40;;;;;;;0.43;0.40;;;27.50;94.10;;;;;;5057599;28;20025;-92
2022/07/12 09:47:13;;;;;;;2.25;0.60;;;27.80;92.90;;;;;;5057802;28;20028;-94
2022/07/12 09:49:43;;;;;;;0.98;0.60;;;29.00;91.70;;;;;;5058013;28;20484;-92
2022/07/12 09:52:14;;;;;;;1.35;0.45;;;29.80;89.10;;;;;;5092298;28;20031;-92
2022/07/12 09:54:41;;;;;;;1.53;0.50;;;29.80;88.50;;;;;;5058336;28;20020;-93
2022/07/12 09:57:19;;;;;;;1.60;0.77;;;30.00;85.80;;;;;;5057824;28;20623;-92
2022/07/12 09:59:46;;;;;;;1.38;0.40;;;30.20;84.50;;;;;;5057638;28;20028;-93
2022/07/12 10:02:15;;;;;;;0.73;0.30;;;30.60;81.70;;;;;;5075706;28;20035;-91
2022/07/12 10:04:42;;;;;;;2.35;0.40;;;30.50;79.60;;;;;;5057746;28;20020;-93
2022/07/12 10:07:12;;;;;;;0.63;0.43;;;30.00;80.20;;;;;;5057927;28;20028;-93
2022/07/12 10:09:39;;;;;;;;;;;30.00;78.90;;;;;;5074820;28;20743;-91
2022/07/12 10:12:05;;;;;;;0.40;0.40;;;29.80;78.80;;;;;;5091405;28;19998;-91
2022/07/12 10:14:31;;;;;;;1.40;1.15;;;29.30;79.50;;;;;;5057055;28;20028;-91
2022/07/12 10:16:59;;;;;;;0.90;0.57;;;29.20;78.30;;;;;;5073483;28;20032;-92
2022/07/12 10:19:43;;;;;;;0.63;0.40;;;29.10;78.30;;;;;;5074329;28;20487;-92
2022/07/12 10:22:20;;;;;;;0.60;0.30;;;29.10;80.00;;;;;;5074941;28;20032;-92
2022/07/12 10:24:54;;;;;;;0.38;0.38;;;29.30;78.50;;;;;;5074537;28;20032;-91
2022/07/12 10:27:20;;;;;;;0.50;0.50;;;28.80;78.60;;;;;;5057478;28;20479;-92
2022/07/12 10:29:48;;;;;;;0.43;0.38;;;28.20;79.70;;;;;;5074421;28;20028;-93
2022/07/12 10:32:27;;;;;;;0.60;0.55;;;28.20;79.30;;;;;;5074689;28;20183;-92
2022/07/12 10:35:00;;;;;;;3.25;0.43;;;28.20;80.70;;;;;;5057724;28;20077;-92
2022/07/12 10:37:27;;;;;;;0.50;0.38;;;27.50;81.50;;;;;;5057564;28;20037;-93
2022/07/12 10:40:11;;;;;;;0.40;0.40;;;27.20;82.70;;;;;;5073633;28;20035;-93
2022/07/12 10:42:36;;;;;;;0.75;0.30;;;27.20;82.60;;;;;;5075097;28;20064;-92
2022/07/12 10:45:16;;;;;;;0.68;0.50;;;27.10;83.10;;;;;;5057857;28;20029;-94
2022/07/12 10:47:58;;;;;;;0.47;0.40;;;27.00;82.10;;;;;;5075846;28;20039;-92
2022/07/12 10:50:45;;;;;;;0.45;0.40;;;26.90;82.50;;;;;;5057993;28;20033;-93
2022/07/12 10:53:26;;;;;;;0.85;0.85;;;26.30;82.10;;;;;;5074775;28;20110;-92
2022/07/12 10:56:04;;;;;;;0.47;0.47;;;26.20;83.60;;;;;;5057108;28;20036;-92
2022/07/12 10:58:31;;;;;;;0.32;0.32;;;26.40;84.10;;;;;;5072752;28;20032;-92
2022/07/12 11:00:58;;;;;;;0.32;0.30;;;26.90;83.10;;;;;;5073784;28;20406;-92
2022/07/12 11:03:29;;;;;;;1.83;1.70;;;27.70;82.20;;;;;;5057943;28;20119;-92
2022/07/12 11:06:01;;;;;;;;;;;27.80;77.00;;;;;;5074468;28;20488;-90
2022/07/12 11:08:27;;;;;;;0.60;0.50;;;27.90;80.30;;;;;;5074647;28;19918;-94
2022/07/12 11:10:57;;;;;;;0.70;0.40;;;27.90;79.30;;;;;;5057762;28;20040;-92
2022/07/12 11:13:24;;;;;;;5.47;0.50;;;27.60;81.60;;;;;;5060309;28;20475;-96
2022/07/12 11:16:00;;;;;;;2.60;0.50;;;27.90;80.70;;;;;;5060498;28;20028;-93
2022/07/12 11:18:34;;;;;;;0.50;0.50;;;27.80;78.90;;;;;;5058846;28;20059;-91
2022/07/12 11:21:01;;;;;;;0.38;0.30;;;28.10;80.20;;;;;;5058449;28;20518;-95
2022/07/12 11:23:29;;;;;;;0.50;0.40;;;28.40;79.50;;;;;;5071252;28;20028;-96
2022/07/12 11:26:05;;;;;;;0.43;0.43;;;28.40;78.50;;;;;;5075827;28;20059;-96
2022/07/12 11:28:48;;;;;;;0.50;0.50;;;28.20;76.70;;;;;;5069542;28;20023;-96
2022/07/12 11:31:18;;;;;;;0.50;0.50;;;28.50;77.20;;;;;;5083825;28;20121;-96
2022/07/12 11:33:48;;;;;;;1.55;0.43;;;28.80;79.00;;;;;;5066226;28;20384;-96
2022/07/12 11:36:15;;;;;;;2.47;0.40;;;28.60;75.60;;;;;;5064809;28;20063;-96
2022/07/12 11:38:43;;;;;;;0.63;0.45;;;28.30;75.80;;;;;;5065652;28;20058;-95
2022/07/12 11:41:10;;;;;;;1.45;0.40;;;28.40;77.40;;;;;;5069636;28;20037;-96
2022/07/12 11:44:08;;;;;;;0.50;0.30;;;28.60;75.90;;;;;;5071143;28;20041;-96
2022/07/12 11:50:23;;;;;;;1.83;0.60;;;28.00;76.20;;;;;;5084005;28;20490;-95
2022/07/12 11:52:49;;;;;;;0.60;0.60;;;27.70;76.60;;;;;;5071020;28;20029;-96
2022/07/12 11:55:16;;;;;;;0.60;0.50;;;27.80;76.10;;;;;;5082145;28;20070;-95
2022/07/12 11:57:42;;;;;;;0.47;0.47;;;28.00;75.40;;;;;;5064302;28;20111;-96
2022/07/12 12:00:19;;;;;;;3.85;0.70;;;27.70;74.10;;;;;;5064329;28;20502;-95
2022/07/12 12:02:45;;;;;;;0.93;0.70;;;27.50;76.10;;;;;;5064420;28;20028;-96
2022/07/12 12:05:11;;;;;;;1.60;0.60;;;27.30;76.80;;;;;;5062554;28;20025;-95
2022/07/12 12:07:37;;;;;;;3.13;0.55;;;27.10;77.90;;;;;;5065129;28;20028;-94
2022/07/12 12:10:17;;;;;;;3.05;0.90;;;26.80;74.70;;;;;;5066856;28;20123;-95
2022/07/12 12:12:54;;;;;;;0.75;0.70;;;26.60;75.50;;;;;;5062891;28;20020;-95
2022/07/12 12:15:25;;;;;;;0.90;0.60;;;26.60;75.50;;;;;;5066872;28;20079;-95
2022/07/12 12:17:51;;;;;;;;;;;26.70;75.40;;;;;;5070321;28;20059;-95
2022/07/12 12:20:20;;;;;;;1.70;0.77;;;26.80;77.40;;;;;;5093809;28;19908;-96
2022/07/12 12:22:54;;;;;;;0.90;0.73;;;27.20;75.60;;;;;;5075436;28;20029;-96
2022/07/12 12:25:24;;;;;;;0.60;0.50;;;27.40;74.40;;;;;;5094464;28;20041;-94
2022/07/12 12:28:03;;;;;;;0.50;0.50;;;27.40;72.20;;;;;;5080808;28;20025;-95
2022/07/12 12:31:02;;;;;;;0.57;0.57;;;27.40;72.20;;;;;;5071212;28;20036;-95
2022/07/12 12:33:40;;;;;;;0.68;0.68;;;27.70;73.10;;;;;;5075247;28;20071;-96
2022/07/12 12:36:26;;;;;;;1.83;0.80;;;27.80;70.60;;;;;;5078142;28;20028;-96
2022/07/12 12:39:00;;;;;;;1.17;0.70;;;28.30;72.00;;;;;;5089482;28;20031;-96
2022/07/12 12:41:28;;;;;;;0.70;0.70;;;29.20;72.00;;;;;;5067553;28;20470;-93
2022/07/12 12:44:02;;;;;;;0.60;0.60;;;29.80;72.10;;;;;;5071959;28;20074;-95
2022/07/12 12:46:46;;;;;;;0.60;0.52;;;30.00;69.70;;;;;;5089784;23;20092;-96
2022/07/12 12:49:13;;;;;;;1.20;0.50;;;29.50;68.10;;;;;;5053153;28;20093;-96
2022/07/12 12:51:58;;;;;;;2.45;0.68;;;29.60;68.30;;;;;;5034363;28;20026;-96
2022/07/12 12:54:34;;;;;;;0.88;0.70;;;30.00;67.50;;;;;;5031027;28;20124;-96
2022/07/12 12:57:02;;;;;;;0.68;0.50;;;30.70;65.40;;;;;;5027668;28;20105;-95
2022/07/12 12:59:30;;;;;;;0.40;0.40;;;30.70;65.80;;;;;;5030080;28;20057;-93
2022/07/12 13:01:57;;;;;;;2.20;0.52;;;30.60;65.70;;;;;;5031387;28;20021;-96
2022/07/12 13:04:28;;;;;;;2.17;0.60;;;30.40;64.50;;;;;;5060360;28;20029;-96
2022/07/12 13:06:55;;;;;;;1.27;0.60;;;30.10;66.60;;;;;;5060272;28;20029;-95
2022/07/12 13:09:22;;;;;;;0.70;0.60;;;30.30;65.00;;;;;;5064231;28;20022;-96